Andrew J. Barberi — WYR3370 — position and weather

sailwx.info

Track history (hours):
 
Tides and Currents Weather Stations Pressure Air Temp Water Temp Dewpoint Dewpoint Depression Visibility Wind Speed Wind Dir Waves Ship Positions

Andrew J. Barberi

Owner: CITY OF NEW YORK, Brooklyn, NY. More information available from US FCC via Universal Licensing System and Coast Guard Vessel Documentation Center.

Last reported at 2015-May-25 14:33 UTC. Time now 2015-May-25 15:25 UTC.
Position N 40°42' W 074°01'.

Length 94 m; draft 4.3 m.

Type: Ship. MMSI: 367000150.

Date/timePositionNaut miles runAvg speedWind from/ knotsBaromVisibWave heightAir tempDewpointWater temp
2015-May-25 14:33N 40°42' W 074°01'0 0.2
2015-May-25 13:33N 40°42' W 074°01'0 0.2
2015-May-25 12:33N 40°42' W 074°01'0 0.1
2015-May-25 11:34N 40°42' W 074°01'4 4.1
2015-May-25 10:33N 40°39' W 074°04'0 0.0
2015-May-25 09:33N 40°39' W 074°04'0 0.0
2015-May-25 08:13N 40°39' W 074°04'0 0.0
2015-May-25 07:31N 40°39' W 074°04'0 0.0
2015-May-25 06:31N 40°39' W 074°04'0 0.0
2015-May-25 05:34N 40°39' W 074°04'0 0.0
2015-May-25 04:31N 40°39' W 074°04'0 0.0
2015-May-25 03:34N 40°39' W 074°04'0 0.0
2015-May-25 02:34N 40°39' W 074°04'0 0.0
2015-May-25 01:31N 40°39' W 074°04'0 0.0
2015-May-25 00:33N 40°39' W 074°04'0 0.1
2015-May-24 23:33N 40°39' W 074°04'0 0.0
2015-May-24 22:34N 40°39' W 074°04'0 0.2
2015-May-24 21:34N 40°39' W 074°04'4 4.1
2015-May-24 20:34N 40°42' W 074°01'4 4.3
2015-May-24 19:34N 40°39' W 074°04'0 0.1
2015-May-24 18:33N 40°39' W 074°04'4 4.2
2015-May-24 17:33N 40°42' W 074°01'4 4.3
2015-May-24 16:33N 40°39' W 074°04'0 0.1
2015-May-24 15:34N 40°39' W 074°04'0 0.0
2015-May-24 14:34N 40°39' W 074°04'0 0.0
2015-May-24 13:33N 40°39' W 074°04'0 0.0
2015-May-24 12:32N 40°39' W 074°04'0 0.0
2015-May-24 11:32N 40°39' W 074°04'0 0.0
2015-May-24 10:32N 40°39' W 074°04'0 0.0
2015-May-24 09:33N 40°39' W 074°04'0 0.0
2015-May-24 08:32N 40°39' W 074°04'0 0.0
2015-May-24 07:33N 40°39' W 074°04'0 0.0
2015-May-24 06:32N 40°39' W 074°04'0 0.0
2015-May-24 05:33N 40°39' W 074°04'0 0.0
2015-May-24 04:32N 40°39' W 074°04'0 0.0
2015-May-24 03:32N 40°39' W 074°04'0 0.0
2015-May-24 02:32N 40°39' W 074°04'0 0.0
2015-May-24 01:32N 40°39' W 074°04'0 0.0
2015-May-24 00:33N 40°39' W 074°04'4 4.3
2015-May-23 23:34N 40°42' W 074°01'0 0.0
2015-May-23 22:33N 40°42' W 074°01'0 0.0
2015-May-23 21:33N 40°42' W 074°01'4 4.3
2015-May-23 20:33N 40°39' W 074°04'0 0.1
2015-May-23 19:33N 40°39' W 074°04'0 0.2
2015-May-23 18:33N 40°39' W 074°04'4 4.0
2015-May-23 17:33N 40°42' W 074°01'4 4.3
2015-May-23 16:33N 40°39' W 074°04'0 0.1
2015-May-23 15:33N 40°39' W 074°04'0 0.0
2015-May-23 14:33N 40°39' W 074°04'0 0.0
2015-May-23 13:33N 40°39' W 074°04'0 0.0
2015-May-23 12:33N 40°39' W 074°04'0 0.0
2015-May-23 11:33N 40°39' W 074°04'0 0.0
2015-May-23 10:33N 40°39' W 074°04'0 0.0
2015-May-23 09:30N 40°39' W 074°04'0 0.0
2015-May-23 08:33N 40°39' W 074°04'0 0.0
2015-May-23 07:33N 40°39' W 074°04'0 0.0
2015-May-23 06:33N 40°39' W 074°04'0 0.0
2015-May-23 05:33N 40°39' W 074°04'0 0.0
2015-May-23 04:33N 40°39' W 074°04'0 0.0
2015-May-23 03:33N 40°39' W 074°04'0 0.0
2015-May-23 02:33N 40°39' W 074°04'0 0.0
2015-May-23 01:33N 40°39' W 074°04'0 0.0
2015-May-23 00:34N 40°39' W 074°04'4 4.3
2015-May-22 23:33N 40°42' W 074°01'0 0.0
2015-May-22 22:33N 40°42' W 074°01'0 0.0
2015-May-22 21:22N 40°42' W 074°01'1 1.0
2015-May-22 20:34N 40°42' W 074°02'4 1.8
2015-May-22 18:33N 40°39' W 074°04'0 0.1
2015-May-22 17:33N 40°39' W 074°04'4 4.1
2015-May-22 16:34N 40°42' W 074°01'4 4.1
2015-May-22 15:33N 40°39' W 074°04'4 4.2
2015-May-22 14:33N 40°42' W 074°01'4 4.2
2015-May-22 13:33N 40°39' W 074°04'3 3.3
2015-May-22 12:33N 40°41' W 074°02'0 0.0
2015-May-22 11:33N 40°41' W 074°02'1 0.9
2015-May-22 10:33N 40°42' W 074°01'4 4.2
2015-May-22 09:33N 40°39' W 074°04'0 0.0
2015-May-22 08:34N 40°39' W 074°04'0 0.0
2015-May-22 07:33N 40°39' W 074°04'0 0.0
2015-May-22 06:33N 40°39' W 074°04'0 0.0
2015-May-22 05:33N 40°39' W 074°04'0 0.0
2015-May-22 04:33N 40°39' W 074°04'0 0.0
2015-May-22 03:33N 40°39' W 074°04'0 0.0
2015-May-22 02:33N 40°39' W 074°04'0 0.0
2015-May-22 01:33N 40°39' W 074°04'4 4.2
2015-May-22 00:33N 40°42' W 074°01'4 4.3
2015-May-21 23:34N 40°39' W 074°04'0 0.4
2015-May-21 22:34N 40°39' W 074°04'0 0.0
2015-May-21 21:34N 40°39' W 074°04'4 3.9
2015-May-21 20:33N 40°42' W 074°01'0 0.0
2015-May-21 19:24N 40°42' W 074°01'4 4.2
2015-May-21 18:23N 40°39' W 074°04'0 0.3
2015-May-21 17:33N 40°39' W 074°04'4 4.0
2015-May-21 16:33N 40°42' W 074°01'4 4.2
2015-May-21 15:33N 40°39' W 074°04'0 0.0
2015-May-21 14:33N 40°39' W 074°04'0 0.2
2015-May-21 13:33N 40°39' W 074°04'3 2.6
2015-May-21 12:33N 40°41' W 074°02'1 0.8
2015-May-21 11:33N 40°42' W 074°02'1 0.7
2015-May-21 10:33N 40°42' W 074°01'4 4.2
2015-May-21 09:33N 40°39' W 074°04'0 0.0
2015-May-21 08:33N 40°39' W 074°04'0 0.0
2015-May-21 07:31N 40°39' W 074°04'0 0.0
2015-May-21 06:31N 40°39' W 074°04'0 0.0
2015-May-21 05:31N 40°39' W 074°04'0 0.0
2015-May-21 04:31N 40°39' W 074°04'0 0.0
2015-May-21 03:31N 40°39' W 074°04'0 0.0
2015-May-21 02:25N 40°39' W 074°04'0 0.1
2015-May-21 01:33N 40°39' W 074°04'4 4.1
2015-May-21 00:33N 40°42' W 074°01'4 2.0
2015-May-20 22:34N 40°39' W 074°04'0 0.2
2015-May-20 21:33N 40°39' W 074°04'4 3.9
2015-May-20 20:34N 40°42' W 074°01'0 0.1
2015-May-20 19:26N 40°42' W 074°01'4 4.2
2015-May-20 18:25N 40°39' W 074°04'0 0.4
2015-May-20 17:34N 40°39' W 074°04'0 0.4
2015-May-20 16:33N 40°39' W 074°04'0 0.0
2015-May-20 15:33N 40°39' W 074°04'0 0.1
2015-May-20 14:33N 40°39' W 074°04'0 0.2
2015-May-20 13:33N 40°39' W 074°04'4 3.7
2015-May-20 12:33N 40°42' W 074°01'0 0.2
2015-May-20 11:34N 40°42' W 074°02'1 0.6
2015-May-20 10:34N 40°42' W 074°01'5 4.5
2015-May-20 09:34N 40°38' W 074°04'1 0.7
2015-May-20 08:33N 40°39' W 074°04'0 0.0
2015-May-20 07:28N 40°39' W 074°04'0 0.0
2015-May-20 06:31N 40°39' W 074°04'0 0.0
2015-May-20 05:31N 40°39' W 074°04'0 0.0
2015-May-20 04:31N 40°39' W 074°04'0 0.0
2015-May-20 03:28N 40°39' W 074°04'0 0.0
2015-May-20 02:31N 40°39' W 074°04'0 0.0
2015-May-20 01:34N 40°39' W 074°04'4 3.7
2015-May-20 00:25N 40°42' W 074°01'4 4.6
2015-May-19 23:29N 40°39' W 074°04'0 0.0
2015-May-19 22:33N 40°39' W 074°04'0 0.3
2015-May-19 21:33N 40°39' W 074°04'4 3.9
2015-May-19 20:33N 40°42' W 074°01'0 0.0
2015-May-19 19:26N 40°42' W 074°01'4 4.2
2015-May-19 18:25N 40°39' W 074°04'0 0.1
2015-May-19 17:34N 40°39' W 074°04'0 0.1
2015-May-19 16:34N 40°39' W 074°04'0 0.0
2015-May-19 15:33N 40°39' W 074°04'0 0.0
2015-May-19 14:33N 40°39' W 074°04'1 1.3
2015-May-19 13:33N 40°40' W 074°03'1 1.2
2015-May-19 12:33N 40°39' W 074°04'2 1.8
2015-May-19 11:33N 40°40' W 074°03'2 2.4
2015-May-19 10:34N 40°42' W 074°01'4 4.2
2015-May-19 09:33N 40°39' W 074°04'0 0.0
2015-May-19 08:33N 40°39' W 074°04'0 0.0
2015-May-19 07:33N 40°39' W 074°04'0 0.0
2015-May-19 06:33N 40°39' W 074°04'0 0.0
2015-May-19 05:30N 40°39' W 074°04'0 0.0
2015-May-19 04:33N 40°39' W 074°04'0 0.0
2015-May-19 03:33N 40°39' W 074°04'0 0.0
2015-May-19 02:33N 40°39' W 074°04'0 0.1
2015-May-19 01:34N 40°39' W 074°04'4 4.2
2015-May-19 00:34N 40°42' W 074°01'4 4.2
2015-May-18 23:34N 40°39' W 074°04'0 0.2
2015-May-18 22:33N 40°39' W 074°04'0 0.2
2015-May-18 21:33N 40°39' W 074°04'4 4.0
2015-May-18 20:34N 40°42' W 074°01'0 0.0
2015-May-18 19:33N 40°42' W 074°01'4 4.3
2015-May-18 18:33N 40°39' W 074°04'0 0.3
2015-May-18 17:33N 40°39' W 074°04'4 4.0
2015-May-18 16:33N 40°42' W 074°01'0 0.1
2015-May-18 15:33N 40°42' W 074°01'3 2.5
2015-May-18 14:33N 40°40' W 074°03'2 1.5
2015-May-18 13:33N 40°39' W 074°04'3 3.2
2015-May-18 12:33N 40°41' W 074°02'0 0.1
2015-May-18 11:34N 40°41' W 074°02'1 1.0
2015-May-18 10:33N 40°42' W 074°01'4 4.2
2015-May-18 09:33N 40°39' W 074°04'0 0.0
2015-May-18 08:33N 40°39' W 074°04'0 0.0
2015-May-18 07:33N 40°39' W 074°04'0 0.0
2015-May-18 06:30N 40°39' W 074°04'0 0.0
2015-May-18 05:33N 40°39' W 074°04'0 0.0
2015-May-18 04:33N 40°39' W 074°04'0 0.0
2015-May-18 03:33N 40°39' W 074°04'0 0.0
2015-May-18 02:33N 40°39' W 074°04'0 0.0
2015-May-18 01:33N 40°39' W 074°04'0 0.0
2015-May-18 00:33N 40°39' W 074°04'0 0.0
2015-May-17 23:33N 40°39' W 074°04'0 0.2
2015-May-17 21:33N 40°39' W 074°04'4 4.0
2015-May-17 20:33N 40°42' W 074°01'4 4.3
2015-May-17 19:34N 40°39' W 074°04'0 0.1
2015-May-17 18:34N 40°39' W 074°04'4 4.2
2015-May-17 17:33N 40°42' W 074°01'4 3.5
2015-May-17 16:22N 40°39' W 074°04'0 0.2
2015-May-17 15:34N 40°39' W 074°04'0 0.3
2015-May-17 14:33N 40°39' W 074°04'0 0.0
2015-May-17 13:32N 40°39' W 074°04'0 0.0
2015-May-17 12:32N 40°39' W 074°04'0 0.0
2015-May-17 11:32N 40°39' W 074°04'0 0.0
2015-May-17 10:32N 40°39' W 074°04'0 0.0
2015-May-17 09:32N 40°39' W 074°04'0 0.0
2015-May-17 08:29N 40°39' W 074°04'0 0.0
2015-May-17 07:32N 40°39' W 074°04'0 0.0
2015-May-17 06:32N 40°39' W 074°04'0 0.0
2015-May-17 05:32N 40°39' W 074°04'0 0.0
2015-May-17 04:32N 40°39' W 074°04'0 0.0
2015-May-17 03:32N 40°39' W 074°04'0 0.0
2015-May-17 02:32N 40°39' W 074°04'0 0.0
2015-May-17 01:32N 40°39' W 074°04'0 0.0
2015-May-17 00:33N 40°39' W 074°04'4 4.3
2015-May-16 23:33N 40°42' W 074°01'0 0.0
2015-May-16 22:34N 40°42' W 074°01'0 0.0
2015-May-16 21:33N 40°42' W 074°01'4 4.3
2015-May-16 20:33N 40°39' W 074°04'0 0.1
2015-May-16 19:34N 40°39' W 074°04'0 0.0
2015-May-16 18:33N 40°39' W 074°04'4 4.2
2015-May-16 17:34N 40°42' W 074°01'4 3.5
2015-May-16 16:22N 40°39' W 074°04'0 0.1
2015-May-16 15:33N 40°39' W 074°04'0 0.1
2015-May-16 14:33N 40°39' W 074°04'0 0.0
2015-May-16 13:32N 40°39' W 074°04'0 0.0
2015-May-16 12:32N 40°39' W 074°04'0 0.0
2015-May-16 11:29N 40°39' W 074°04'0 0.0
2015-May-16 10:32N 40°39' W 074°04'0 0.0
2015-May-16 09:32N 40°39' W 074°04'0 0.0
2015-May-16 08:32N 40°39' W 074°04'0 0.0
2015-May-16 07:32N 40°39' W 074°04'0 0.0
2015-May-16 06:32N 40°39' W 074°04'0 0.0
2015-May-16 05:29N 40°39' W 074°04'0 0.0
2015-May-16 04:32N 40°39' W 074°04'0 0.0
2015-May-16 03:32N 40°39' W 074°04'0 0.0
2015-May-16 02:32N 40°39' W 074°04'0 0.0
2015-May-16 01:32N 40°39' W 074°04'0 0.1
2015-May-16 00:33N 40°39' W 074°04'4 4.3
2015-May-15 23:33N 40°42' W 074°01'0 0.2
2015-May-15 22:34N 40°42' W 074°01'0 0.1
2015-May-15 21:33N 40°42' W 074°01'2 1.7
2015-May-15 20:34N 40°41' W 074°02'3 2.6
2015-May-15 19:33N 40°39' W 074°04'0 0.1
2015-May-15 18:33N 40°39' W 074°04'0 0.2
2015-May-15 17:33N 40°39' W 074°04'4 3.8
2015-May-15 16:29N 40°42' W 074°01'4 2.2
2015-May-15 14:34N 40°39' W 074°04'  
Track history (hours):
 
Tides and Currents Weather Stations Pressure Air Temp Water Temp Dewpoint Dewpoint Depression Visibility Wind Speed Wind Dir Waves Ship Positions

Andrew J. Barberi

Owner: CITY OF NEW YORK, Brooklyn, NY. More information available from US FCC via Universal Licensing System and Coast Guard Vessel Documentation Center.

Last reported at 2015-May-25 14:33 UTC. Time now 2015-May-25 15:25 UTC.
Position N 40°42' W 074°01'.

Length 94 m; draft 4.3 m.

Type: Ship. MMSI: 367000150.

Date/timePositionNaut miles runAvg speedWind from/ knotsBaromVisibWave heightAir tempDewpointWater temp
2015-May-25 14:33N 40°42' W 074°01'0 0.2
2015-May-25 13:33N 40°42' W 074°01'0 0.2
2015-May-25 12:33N 40°42' W 074°01'0 0.1
2015-May-25 11:34N 40°42' W 074°01'4 4.1
2015-May-25 10:33N 40°39' W 074°04'0 0.0
2015-May-25 09:33N 40°39' W 074°04'0 0.0
2015-May-25 08:13N 40°39' W 074°04'0 0.0
2015-May-25 07:31N 40°39' W 074°04'0 0.0
2015-May-25 06:31N 40°39' W 074°04'0 0.0
2015-May-25 05:34N 40°39' W 074°04'0 0.0
2015-May-25 04:31N 40°39' W 074°04'0 0.0
2015-May-25 03:34N 40°39' W 074°04'0 0.0
2015-May-25 02:34N 40°39' W 074°04'0 0.0
2015-May-25 01:31N 40°39' W 074°04'0 0.0
2015-May-25 00:33N 40°39' W 074°04'0 0.1
2015-May-24 23:33N 40°39' W 074°04'0 0.0
2015-May-24 22:34N 40°39' W 074°04'0 0.2
2015-May-24 21:34N 40°39' W 074°04'4 4.1
2015-May-24 20:34N 40°42' W 074°01'4 4.3
2015-May-24 19:34N 40°39' W 074°04'0 0.1
2015-May-24 18:33N 40°39' W 074°04'4 4.2
2015-May-24 17:33N 40°42' W 074°01'4 4.3
2015-May-24 16:33N 40°39' W 074°04'0 0.1
2015-May-24 15:34N 40°39' W 074°04'0 0.0
2015-May-24 14:34N 40°39' W 074°04'0 0.0
2015-May-24 13:33N 40°39' W 074°04'0 0.0
2015-May-24 12:32N 40°39' W 074°04'0 0.0
2015-May-24 11:32N 40°39' W 074°04'0 0.0
2015-May-24 10:32N 40°39' W 074°04'0 0.0
2015-May-24 09:33N 40°39' W 074°04'0 0.0
2015-May-24 08:32N 40°39' W 074°04'0 0.0
2015-May-24 07:33N 40°39' W 074°04'0 0.0
2015-May-24 06:32N 40°39' W 074°04'0 0.0
2015-May-24 05:33N 40°39' W 074°04'0 0.0
2015-May-24 04:32N 40°39' W 074°04'0 0.0
2015-May-24 03:32N 40°39' W 074°04'0 0.0
2015-May-24 02:32N 40°39' W 074°04'0 0.0
2015-May-24 01:32N 40°39' W 074°04'0 0.0
2015-May-24 00:33N 40°39' W 074°04'4 4.3
2015-May-23 23:34N 40°42' W 074°01'0 0.0
2015-May-23 22:33N 40°42' W 074°01'0 0.0
2015-May-23 21:33N 40°42' W 074°01'4 4.3
2015-May-23 20:33N 40°39' W 074°04'0 0.1
2015-May-23 19:33N 40°39' W 074°04'0 0.2
2015-May-23 18:33N 40°39' W 074°04'4 4.0
2015-May-23 17:33N 40°42' W 074°01'4 4.3
2015-May-23 16:33N 40°39' W 074°04'0 0.1
2015-May-23 15:33N 40°39' W 074°04'0 0.0
2015-May-23 14:33N 40°39' W 074°04'0 0.0
2015-May-23 13:33N 40°39' W 074°04'0 0.0
2015-May-23 12:33N 40°39' W 074°04'0 0.0
2015-May-23 11:33N 40°39' W 074°04'0 0.0
2015-May-23 10:33N 40°39' W 074°04'0 0.0
2015-May-23 09:30N 40°39' W 074°04'0 0.0
2015-May-23 08:33N 40°39' W 074°04'0 0.0
2015-May-23 07:33N 40°39' W 074°04'0 0.0
2015-May-23 06:33N 40°39' W 074°04'0 0.0
2015-May-23 05:33N 40°39' W 074°04'0 0.0
2015-May-23 04:33N 40°39' W 074°04'0 0.0
2015-May-23 03:33N 40°39' W 074°04'0 0.0
2015-May-23 02:33N 40°39' W 074°04'0 0.0
2015-May-23 01:33N 40°39' W 074°04'0 0.0
2015-May-23 00:34N 40°39' W 074°04'4 4.3
2015-May-22 23:33N 40°42' W 074°01'0 0.0
2015-May-22 22:33N 40°42' W 074°01'0 0.0
2015-May-22 21:22N 40°42' W 074°01'1 1.0
2015-May-22 20:34N 40°42' W 074°02'4 1.8
2015-May-22 18:33N 40°39' W 074°04'0 0.1
2015-May-22 17:33N 40°39' W 074°04'4 4.1
2015-May-22 16:34N 40°42' W 074°01'4 4.1
2015-May-22 15:33N 40°39' W 074°04'4 4.2
2015-May-22 14:33N 40°42' W 074°01'4 4.2
2015-May-22 13:33N 40°39' W 074°04'3 3.3
2015-May-22 12:33N 40°41' W 074°02'0 0.0
2015-May-22 11:33N 40°41' W 074°02'1 0.9
2015-May-22 10:33N 40°42' W 074°01'4 4.2
2015-May-22 09:33N 40°39' W 074°04'0 0.0
2015-May-22 08:34N 40°39' W 074°04'0 0.0
2015-May-22 07:33N 40°39' W 074°04'0 0.0
2015-May-22 06:33N 40°39' W 074°04'0 0.0
2015-May-22 05:33N 40°39' W 074°04'0 0.0
2015-May-22 04:33N 40°39' W 074°04'0 0.0
2015-May-22 03:33N 40°39' W 074°04'0 0.0
2015-May-22 02:33N 40°39' W 074°04'0 0.0
2015-May-22 01:33N 40°39' W 074°04'4 4.2
2015-May-22 00:33N 40°42' W 074°01'4 4.3
2015-May-21 23:34N 40°39' W 074°04'0 0.4
2015-May-21 22:34N 40°39' W 074°04'0 0.0
2015-May-21 21:34N 40°39' W 074°04'4 3.9
2015-May-21 20:33N 40°42' W 074°01'0 0.0
2015-May-21 19:24N 40°42' W 074°01'4 4.2
2015-May-21 18:23N 40°39' W 074°04'0 0.3
2015-May-21 17:33N 40°39' W 074°04'4 4.0
2015-May-21 16:33N 40°42' W 074°01'4 4.2
2015-May-21 15:33N 40°39' W 074°04'0 0.0
2015-May-21 14:33N 40°39' W 074°04'0 0.2
2015-May-21 13:33N 40°39' W 074°04'3 2.6
2015-May-21 12:33N 40°41' W 074°02'1 0.8
2015-May-21 11:33N 40°42' W 074°02'1 0.7
2015-May-21 10:33N 40°42' W 074°01'4 4.2
2015-May-21 09:33N 40°39' W 074°04'0 0.0
2015-May-21 08:33N 40°39' W 074°04'0 0.0
2015-May-21 07:31N 40°39' W 074°04'0 0.0
2015-May-21 06:31N 40°39' W 074°04'0 0.0
2015-May-21 05:31N 40°39' W 074°04'0 0.0
2015-May-21 04:31N 40°39' W 074°04'0 0.0
2015-May-21 03:31N 40°39' W 074°04'0 0.0
2015-May-21 02:25N 40°39' W 074°04'0 0.1
2015-May-21 01:33N 40°39' W 074°04'4 4.1
2015-May-21 00:33N 40°42' W 074°01'4 2.0
2015-May-20 22:34N 40°39' W 074°04'0 0.2
2015-May-20 21:33N 40°39' W 074°04'4 3.9
2015-May-20 20:34N 40°42' W 074°01'0 0.1
2015-May-20 19:26N 40°42' W 074°01'4 4.2
2015-May-20 18:25N 40°39' W 074°04'0 0.4
2015-May-20 17:34N 40°39' W 074°04'0 0.4
2015-May-20 16:33N 40°39' W 074°04'0 0.0
2015-May-20 15:33N 40°39' W 074°04'0 0.1
2015-May-20 14:33N 40°39' W 074°04'0 0.2
2015-May-20 13:33N 40°39' W 074°04'4 3.7
2015-May-20 12:33N 40°42' W 074°01'0 0.2
2015-May-20 11:34N 40°42' W 074°02'1 0.6
2015-May-20 10:34N 40°42' W 074°01'5 4.5
2015-May-20 09:34N 40°38' W 074°04'1 0.7
2015-May-20 08:33N 40°39' W 074°04'0 0.0
2015-May-20 07:28N 40°39' W 074°04'0 0.0
2015-May-20 06:31N 40°39' W 074°04'0 0.0
2015-May-20 05:31N 40°39' W 074°04'0 0.0
2015-May-20 04:31N 40°39' W 074°04'0 0.0
2015-May-20 03:28N 40°39' W 074°04'0 0.0
2015-May-20 02:31N 40°39' W 074°04'0 0.0
2015-May-20 01:34N 40°39' W 074°04'4 3.7
2015-May-20 00:25N 40°42' W 074°01'4 4.6
2015-May-19 23:29N 40°39' W 074°04'0 0.0
2015-May-19 22:33N 40°39' W 074°04'0 0.3
2015-May-19 21:33N 40°39' W 074°04'4 3.9
2015-May-19 20:33N 40°42' W 074°01'0 0.0
2015-May-19 19:26N 40°42' W 074°01'4 4.2
2015-May-19 18:25N 40°39' W 074°04'0 0.1
2015-May-19 17:34N 40°39' W 074°04'0 0.1
2015-May-19 16:34N 40°39' W 074°04'0 0.0
2015-May-19 15:33N 40°39' W 074°04'0 0.0
2015-May-19 14:33N 40°39' W 074°04'1 1.3
2015-May-19 13:33N 40°40' W 074°03'1 1.2
2015-May-19 12:33N 40°39' W 074°04'2 1.8
2015-May-19 11:33N 40°40' W 074°03'2 2.4
2015-May-19 10:34N 40°42' W 074°01'4 4.2
2015-May-19 09:33N 40°39' W 074°04'0 0.0
2015-May-19 08:33N 40°39' W 074°04'0 0.0
2015-May-19 07:33N 40°39' W 074°04'0 0.0
2015-May-19 06:33N 40°39' W 074°04'0 0.0
2015-May-19 05:30N 40°39' W 074°04'0 0.0
2015-May-19 04:33N 40°39' W 074°04'0 0.0
2015-May-19 03:33N 40°39' W 074°04'0 0.0
2015-May-19 02:33N 40°39' W 074°04'0 0.1
2015-May-19 01:34N 40°39' W 074°04'4 4.2
2015-May-19 00:34N 40°42' W 074°01'4 4.2
2015-May-18 23:34N 40°39' W 074°04'0 0.2
2015-May-18 22:33N 40°39' W 074°04'0 0.2
2015-May-18 21:33N 40°39' W 074°04'4 4.0
2015-May-18 20:34N 40°42' W 074°01'0 0.0
2015-May-18 19:33N 40°42' W 074°01'4 4.3
2015-May-18 18:33N 40°39' W 074°04'0 0.3
2015-May-18 17:33N 40°39' W 074°04'4 4.0
2015-May-18 16:33N 40°42' W 074°01'0 0.1
2015-May-18 15:33N 40°42' W 074°01'3 2.5
2015-May-18 14:33N 40°40' W 074°03'2 1.5
2015-May-18 13:33N 40°39' W 074°04'3 3.2
2015-May-18 12:33N 40°41' W 074°02'0 0.1
2015-May-18 11:34N 40°41' W 074°02'1 1.0
2015-May-18 10:33N 40°42' W 074°01'4 4.2
2015-May-18 09:33N 40°39' W 074°04'0 0.0
2015-May-18 08:33N 40°39' W 074°04'0 0.0
2015-May-18 07:33N 40°39' W 074°04'0 0.0
2015-May-18 06:30N 40°39' W 074°04'0 0.0
2015-May-18 05:33N 40°39' W 074°04'0 0.0
2015-May-18 04:33N 40°39' W 074°04'0 0.0
2015-May-18 03:33N 40°39' W 074°04'0 0.0
2015-May-18 02:33N 40°39' W 074°04'0 0.0
2015-May-18 01:33N 40°39' W 074°04'0 0.0
2015-May-18 00:33N 40°39' W 074°04'0 0.0
2015-May-17 23:33N 40°39' W 074°04'0 0.2
2015-May-17 21:33N 40°39' W 074°04'4 4.0
2015-May-17 20:33N 40°42' W 074°01'4 4.3
2015-May-17 19:34N 40°39' W 074°04'0 0.1
2015-May-17 18:34N 40°39' W 074°04'4 4.2
2015-May-17 17:33N 40°42' W 074°01'4 3.5
2015-May-17 16:22N 40°39' W 074°04'0 0.2
2015-May-17 15:34N 40°39' W 074°04'0 0.3
2015-May-17 14:33N 40°39' W 074°04'0 0.0
2015-May-17 13:32N 40°39' W 074°04'0 0.0
2015-May-17 12:32N 40°39' W 074°04'0 0.0
2015-May-17 11:32N 40°39' W 074°04'0 0.0
2015-May-17 10:32N 40°39' W 074°04'0 0.0
2015-May-17 09:32N 40°39' W 074°04'0 0.0
2015-May-17 08:29N 40°39' W 074°04'0 0.0
2015-May-17 07:32N 40°39' W 074°04'0 0.0
2015-May-17 06:32N 40°39' W 074°04'0 0.0
2015-May-17 05:32N 40°39' W 074°04'0 0.0
2015-May-17 04:32N 40°39' W 074°04'0 0.0
2015-May-17 03:32N 40°39' W 074°04'0 0.0
2015-May-17 02:32N 40°39' W 074°04'0 0.0
2015-May-17 01:32N 40°39' W 074°04'0 0.0
2015-May-17 00:33N 40°39' W 074°04'4 4.3
2015-May-16 23:33N 40°42' W 074°01'0 0.0
2015-May-16 22:34N 40°42' W 074°01'0 0.0
2015-May-16 21:33N 40°42' W 074°01'4 4.3
2015-May-16 20:33N 40°39' W 074°04'0 0.1
2015-May-16 19:34N 40°39' W 074°04'0 0.0
2015-May-16 18:33N 40°39' W 074°04'4 4.2
2015-May-16 17:34N 40°42' W 074°01'4 3.5
2015-May-16 16:22N 40°39' W 074°04'0 0.1
2015-May-16 15:33N 40°39' W 074°04'0 0.1
2015-May-16 14:33N 40°39' W 074°04'0 0.0
2015-May-16 13:32N 40°39' W 074°04'0 0.0
2015-May-16 12:32N 40°39' W 074°04'0 0.0
2015-May-16 11:29N 40°39' W 074°04'0 0.0
2015-May-16 10:32N 40°39' W 074°04'0 0.0
2015-May-16 09:32N 40°39' W 074°04'0 0.0
2015-May-16 08:32N 40°39' W 074°04'0 0.0
2015-May-16 07:32N 40°39' W 074°04'0 0.0
2015-May-16 06:32N 40°39' W 074°04'0 0.0
2015-May-16 05:29N 40°39' W 074°04'0 0.0
2015-May-16 04:32N 40°39' W 074°04'0 0.0
2015-May-16 03:32N 40°39' W 074°04'0 0.0
2015-May-16 02:32N 40°39' W 074°04'0 0.0
2015-May-16 01:32N 40°39' W 074°04'0 0.1
2015-May-16 00:33N 40°39' W 074°04'4 4.3
2015-May-15 23:33N 40°42' W 074°01'0 0.2
2015-May-15 22:34N 40°42' W 074°01'0 0.1
2015-May-15 21:33N 40°42' W 074°01'2 1.7
2015-May-15 20:34N 40°41' W 074°02'3 2.6
2015-May-15 19:33N 40°39' W 074°04'0 0.1
2015-May-15 18:33N 40°39' W 074°04'0 0.2
2015-May-15 17:33N 40°39' W 074°04'4 3.8
2015-May-15 16:29N 40°42' W 074°01'4 2.2
2015-May-15 14:34N 40°39' W 074°04'  

Dump ship's entire track history